Time;durP1;ratioP1;P1;durP2;ratioP2;P2;SDS_P1;SDS_P2;PMS_P1;PMS_P2;Temp;Humidity;BMP_temperature;BMP_pressure;BME280_temperature;BME280_humidity;BME280_pressure;Samples;Min_cycle;Max_cycle;Signal;HPM_P1;HPM_P2
2022/01/17 00:00:31;;;;;;;9.98;5.35;;;;;;;-0.28;100.00;94317.25;2115266;27;20090;-82
2022/01/17 00:01:34;;;;;;;10.63;5.47;;;;;;;-0.21;100.00;94319.41;2098345;28;20028;-81
2022/01/17 00:05:10;;;;;;;8.52;5.15;;;;;;;-0.48;100.00;94316.13;2085729;28;20028;-82
2022/01/17 00:06:11;;;;;;;9.10;5.53;;;;;;;-0.59;100.00;94320.94;2097286;28;20028;-82
2022/01/17 00:07:14;;;;;;;10.35;5.65;;;;;;;-0.66;100.00;94322.53;2101135;28;20468;-82
2022/01/17 00:08:18;;;;;;;9.82;5.78;;;;;;;-0.54;100.00;94320.78;2106537;28;20112;-82
2022/01/17 00:09:20;;;;;;;11.63;6.70;;;;;;;-0.60;100.00;94327.28;2098728;28;20024;-83
2022/01/17 00:10:23;;;;;;;15.85;6.65;;;;;;;-0.58;100.00;94319.84;2090254;28;20119;-82
2022/01/17 00:11:24;;;;;;;8.45;5.57;;;;;;;-0.41;100.00;94334.78;2100434;27;20028;-82
2022/01/17 00:12:26;;;;;;;10.40;6.32;;;;;;;-0.54;100.00;94320.78;2106596;28;20028;-82
2022/01/17 00:13:29;;;;;;;9.48;6.15;;;;;;;-0.63;100.00;94322.66;2115186;27;20142;-82
2022/01/17 00:14:34;;;;;;;9.98;6.35;;;;;;;-0.83;100.00;94320.75;2110901;27;20055;-82
2022/01/17 00:15:49;;;;;;;14.50;6.78;;;;;;;-0.78;100.00;94331.06;2111493;28;20103;-82
2022/01/17 00:17:06;;;;;;;11.15;6.10;;;;;;;-0.57;100.00;94331.94;2105546;28;20024;-81
2022/01/17 00:20:26;;;;;;;12.13;6.43;;;;;;;-0.53;100.00;94330.22;2114048;28;20028;-82
2022/01/17 00:21:27;;;;;;;11.82;6.40;;;;;;;-0.52;100.00;94329.13;2100643;28;20062;-80
2022/01/17 00:22:28;;;;;;;12.50;6.80;;;;;;;-0.53;100.00;94332.03;2097206;28;20029;-82
2022/01/17 00:23:29;;;;;;;11.48;6.68;;;;;;;-0.60;100.00;94335.16;2095479;28;20024;-81
2022/01/17 00:24:31;;;;;;;10.57;6.30;;;;;;;-0.63;100.00;94337.66;2098112;28;20035;-81
2022/01/17 00:25:32;;;;;;;12.95;6.20;;;;;;;-0.63;100.00;94335.78;2106547;28;20027;-80
2022/01/17 00:26:33;;;;;;;12.55;7.22;;;;;;;-0.63;100.00;94329.78;2106453;28;20214;-81
2022/01/17 00:27:35;;;;;;;16.25;6.43;;;;;;;-0.67;100.00;94327.00;2114788;28;20097;-81
2022/01/17 00:28:35;;;;;;;11.32;6.85;;;;;;;-0.77;100.00;94325.50;2106303;28;20032;-81
2022/01/17 00:29:40;;;;;;;13.00;7.05;;;;;;;-0.82;100.00;94324.91;2106336;28;20377;-81
2022/01/17 00:31:05;;;;;;;11.98;7.35;;;;;;;-0.93;100.00;94327.06;2097956;28;20035;-81
2022/01/17 00:32:10;;;;;;;12.00;7.00;;;;;;;-0.90;100.00;94325.69;2104357;28;20023;-82
2022/01/17 00:33:20;;;;;;;11.40;6.93;;;;;;;-0.68;100.00;94333.34;2097942;28;20119;-81
2022/01/17 00:34:28;;;;;;;12.55;7.40;;;;;;;-0.58;100.00;94322.47;2093603;28;20029;-81
2022/01/17 00:35:29;;;;;;;10.43;6.85;;;;;;;-0.76;100.00;94321.00;2103891;28;20024;-82
2022/01/17 00:36:30;;;;;;;12.60;7.10;;;;;;;-0.76;100.00;94328.88;2092454;28;20036;-80
2022/01/17 00:37:31;;;;;;;12.35;7.25;;;;;;;-0.82;100.00;94332.78;2103554;28;20036;-81
2022/01/17 00:38:32;;;;;;;12.80;7.05;;;;;;;-0.89;100.00;94335.88;2100787;28;20146;-81
2022/01/17 00:39:33;;;;;;;11.80;7.35;;;;;;;-0.91;100.00;94326.78;2094814;28;20029;-82
2022/01/17 00:40:34;;;;;;;12.57;6.60;;;;;;;-0.95;100.00;94325.88;2101239;28;20100;-81
2022/01/17 00:41:35;;;;;;;13.35;7.13;;;;;;;-0.96;100.00;94330.34;2102721;28;20520;-80
2022/01/17 00:42:36;;;;;;;10.57;7.07;;;;;;;-1.04;100.00;94328.50;2107002;28;20019;-81
2022/01/17 00:43:40;;;;;;;12.40;7.72;;;;;;;-1.09;100.00;94316.31;2095074;28;20036;-81
2022/01/17 00:44:47;;;;;;;14.23;7.68;;;;;;;-1.05;100.00;94327.75;2110864;28;20028;-81
2022/01/17 00:45:51;;;;;;;12.65;6.60;;;;;;;-1.06;100.00;94326.19;2102786;28;20711;-81
2022/01/17 00:46:56;;;;;;;12.73;7.35;;;;;;;-1.11;100.00;94330.81;2092881;28;20031;-81
2022/01/17 00:48:00;;;;;;;10.00;7.13;;;;;;;-1.00;100.00;94334.69;2097101;28;20476;-82
2022/01/17 00:49:03;;;;;;;12.18;7.47;;;;;;;-1.05;100.00;94332.22;2098949;28;20032;-82
2022/01/17 00:50:04;;;;;;;13.77;7.50;;;;;;;-1.02;100.00;94324.47;2105024;28;20020;-81
2022/01/17 00:51:09;;;;;;;12.73;7.63;;;;;;;-1.00;100.00;94328.66;2104490;28;20455;-81
2022/01/17 00:52:11;;;;;;;12.32;7.18;;;;;;;-0.91;100.00;94329.41;2098264;28;20615;-82
2022/01/17 00:53:12;;;;;;;12.38;7.32;;;;;;;-0.91;100.00;94339.91;2094219;28;20110;-81
2022/01/17 00:54:13;;;;;;;11.98;7.40;;;;;;;-0.90;100.00;94333.56;2101891;28;20012;-81
2022/01/17 00:55:15;;;;;;;11.57;7.20;;;;;;;-0.98;100.00;94336.97;2089513;28;20025;-81
2022/01/17 00:56:19;;;;;;;12.15;7.63;;;;;;;-0.82;100.00;94332.78;2093818;28;20020;-81
2022/01/17 00:57:20;;;;;;;12.15;7.10;;;;;;;-0.83;100.00;94328.63;2099884;27;20020;-81
2022/01/17 00:58:22;;;;;;;15.65;8.60;;;;;;;-0.84;100.00;94338.31;2104713;28;20032;-82
2022/01/17 00:59:23;;;;;;;14.60;7.13;;;;;;;-0.83;100.00;94339.13;2099278;28;20067;-81
2022/01/17 01:00:24;;;;;;;13.20;7.10;;;;;;;-0.86;100.00;94344.97;2104374;28;20542;-82
2022/01/17 01:01:25;;;;;;;12.82;7.57;;;;;;;-0.85;100.00;94342.03;2106275;28;20028;-81
2022/01/17 01:02:26;;;;;;;11.63;7.50;;;;;;;-0.85;100.00;94339.41;2107763;28;20545;-83
2022/01/17 01:03:27;;;;;;;12.32;7.20;;;;;;;-0.90;100.00;94342.22;2095706;28;20036;-82
2022/01/17 01:04:28;;;;;;;14.32;8.00;;;;;;;-0.88;100.00;94337.44;2089461;28;20469;-82
2022/01/17 01:05:29;;;;;;;14.70;7.97;;;;;;;-0.93;100.00;94337.56;2086000;28;20026;-83
2022/01/17 01:06:34;;;;;;;10.57;7.07;;;;;;;-0.90;100.00;94338.81;2103456;28;20035;-82
2022/01/17 01:07:35;;;;;;;12.18;7.40;;;;;;;-0.89;100.00;94338.50;2090549;28;20074;-81
2022/01/17 01:08:36;;;;;;;12.57;7.70;;;;;;;-1.00;100.00;94331.28;2097938;28;20103;-82
2022/01/17 01:10:06;;;;;;;12.85;7.72;;;;;;;-0.96;100.00;94332.97;2089531;28;20031;-82
2022/01/17 01:11:02;;;;;;;12.38;7.07;;;;;;;-0.94;100.00;94330.03;2093135;28;20097;-83
2022/01/17 01:12:10;;;;;;;13.23;7.30;;;;;;;-0.92;100.00;94336.50;2103637;28;20373;-82
2022/01/17 01:13:11;;;;;;;12.43;7.45;;;;;;;-0.95;100.00;94339.00;2099836;28;20120;-81
2022/01/17 01:14:14;;;;;;;12.52;7.20;;;;;;;-0.97;100.00;94336.66;2081201;28;20040;-82
2022/01/17 01:15:22;;;;;;;10.82;6.53;;;;;;;-1.01;100.00;94333.13;2081655;28;20029;-82
2022/01/17 01:16:37;;;;;;;15.38;7.28;;;;;;;-1.03;100.00;94337.91;2083160;28;20021;-82
2022/01/17 01:17:53;;;;;;;11.40;7.22;;;;;;;-1.11;100.00;94331.59;2098420;28;20131;-82
2022/01/17 01:21:46;;;;;;;10.55;6.90;;;;;;;-1.16;100.00;94342.25;2104035;27;20028;-82
2022/01/17 01:28:05;;;;;;;11.23;6.05;;;;;;;-1.27;100.00;94347.06;2108340;28;20032;-82
2022/01/17 01:29:06;;;;;;;11.15;5.88;;;;;;;-1.30;100.00;94342.44;2097553;28;20405;-81
2022/01/17 01:30:11;;;;;;;11.00;6.40;;;;;;;-1.23;100.00;94341.94;2089229;28;20074;-81
2022/01/17 01:31:21;;;;;;;10.85;6.70;;;;;;;-1.23;100.00;94341.94;2106512;27;20415;-82
2022/01/17 01:32:26;;;;;;;12.13;7.00;;;;;;;-1.22;100.00;94337.50;2108294;28;20024;-82
2022/01/17 01:33:35;;;;;;;11.38;6.40;;;;;;;-1.30;100.00;94341.66;2106896;28;20069;-82
2022/01/17 01:34:46;;;;;;;10.00;6.28;;;;;;;-1.35;100.00;94345.22;2107952;27;20106;-83
2022/01/17 01:35:48;;;;;;;10.70;6.03;;;;;;;-1.32;100.00;94344.59;2114987;27;20020;-81
2022/01/17 01:36:50;;;;;;;11.02;6.22;;;;;;;-1.34;100.00;94348.59;2097588;28;20021;-83
2022/01/17 01:37:51;;;;;;;9.13;6.20;;;;;;;-1.35;100.00;94349.69;2089462;28;20032;-83
2022/01/17 01:38:54;;;;;;;11.32;5.90;;;;;;;-1.34;100.00;94348.59;2097380;28;20349;-82
2022/01/17 01:39:56;;;;;;;11.55;6.75;;;;;;;-1.33;100.00;94342.28;2097583;28;20087;-82
2022/01/17 01:40:59;;;;;;;9.82;6.65;;;;;;;-1.40;100.00;94352.47;2103596;28;20452;-83
2022/01/17 01:42:03;;;;;;;10.93;6.82;;;;;;;-1.49;100.00;94349.84;2099955;28;20230;-83
2022/01/17 01:43:07;;;;;;;8.90;5.80;;;;;;;-1.47;100.00;94346.91;2102124;28;20915;-83
2022/01/17 01:44:13;;;;;;;10.15;5.85;;;;;;;-1.48;100.00;94348.00;2102025;28;20401;-83
2022/01/17 01:45:15;;;;;;;8.50;5.70;;;;;;;-1.46;100.00;94343.97;2090307;28;20484;-82
2022/01/17 01:46:19;;;;;;;9.98;5.97;;;;;;;-1.54;100.00;94344.75;2097241;28;20416;-82
2022/01/17 01:47:26;;;;;;;10.13;6.30;;;;;;;-1.51;100.00;94349.38;2091117;28;20358;-83
2022/01/17 01:48:32;;;;;;;8.60;5.82;;;;;;;-1.49;100.00;94347.22;2096063;28;20024;-83
2022/01/17 01:49:33;;;;;;;9.52;5.35;;;;;;;-1.47;100.00;94341.66;2087530;28;20042;-82
2022/01/17 01:50:34;;;;;;;8.93;5.43;;;;;;;-1.49;100.00;94342.00;2097135;28;20028;-83
2022/01/17 01:51:35;;;;;;;11.48;6.53;;;;;;;-1.54;100.00;94352.59;2089037;28;20024;-83
2022/01/17 01:52:41;;;;;;;10.88;6.35;;;;;;;-1.58;100.00;94341.19;2097465;28;20039;-82
2022/01/17 01:53:42;;;;;;;10.48;5.32;;;;;;;-1.53;100.00;94343.69;2089764;28;20051;-82
2022/01/17 01:54:44;;;;;;;10.52;6.28;;;;;;;-1.48;100.00;94342.75;2081940;28;20025;-82
2022/01/17 01:55:45;;;;;;;9.48;6.25;;;;;;;-1.52;100.00;94345.22;2097214;28;20114;-81
2022/01/17 01:56:48;;;;;;;8.95;5.95;;;;;;;-1.55;100.00;94345.81;2089033;28;20092;-83
2022/01/17 01:57:50;;;;;;;11.57;6.10;;;;;;;-1.57;100.00;94343.53;2089755;28;20104;-82
2022/01/17 01:58:57;;;;;;;8.18;5.30;;;;;;;-1.53;100.00;94341.06;2105949;28;20082;-83
2022/01/17 02:00:01;;;;;;;8.00;5.75;;;;;;;-1.47;100.00;94341.66;2098137;28;20032;-83
2022/01/17 02:01:05;;;;;;;11.45;5.65;;;;;;;-1.39;100.00;94338.28;2101793;28;20028;-82
2022/01/17 02:02:08;;;;;;;12.35;5.78;;;;;;;-1.49;100.00;94339.38;2101653;28;20035;-83
2022/01/17 02:03:08;;;;;;;9.00;5.90;;;;;;;-1.56;100.00;94337.19;2097157;28;20031;-82
2022/01/17 02:04:09;;;;;;;9.27;5.03;;;;;;;-1.55;100.00;94341.34;2114305;27;20027;-84
2022/01/17 02:05:11;;;;;;;8.85;5.72;;;;;;;-1.49;100.00;94335.94;2105958;28;20024;-83
2022/01/17 02:06:12;;;;;;;8.82;5.85;;;;;;;-1.54;100.00;94335.03;2097469;28;20192;-83
2022/01/17 02:07:13;;;;;;;10.88;6.20;;;;;;;-1.58;100.00;94333.31;2093079;28;20441;-82
2022/01/17 02:08:15;;;;;;;9.80;5.40;;;;;;;-1.60;100.00;94332.88;2097448;28;20020;-82
2022/01/17 02:10:24;;;;;;;8.32;5.55;;;;;;;-1.68;100.00;94336.25;2139020;27;20162;-83
2022/01/17 02:11:25;;;;;;;9.90;5.63;;;;;;;-1.75;100.00;94323.63;2121333;28;20088;-81
2022/01/17 02:12:28;;;;;;;9.82;5.80;;;;;;;-1.72;100.00;94336.09;2104394;28;20453;-83
2022/01/17 02:13:30;;;;;;;11.18;6.10;;;;;;;-1.76;100.00;94327.31;2113304;28;20070;-83
2022/01/17 02:14:36;;;;;;;10.93;5.95;;;;;;;-1.72;100.00;94336.09;2104675;28;20027;-82
2022/01/17 02:15:39;;;;;;;9.07;5.85;;;;;;;-1.82;100.00;94329.31;2112326;28;20064;-81
2022/01/17 02:16:43;;;;;;;9.73;5.53;;;;;;;-1.79;100.00;94338.44;2104792;28;20477;-82
2022/01/17 02:17:53;;;;;;;9.57;5.32;;;;;;;-1.82;100.00;94331.94;2104866;28;20556;-81
2022/01/17 02:18:54;;;;;;;8.93;5.57;;;;;;;-1.84;100.00;94328.88;2098755;28;20074;-83
2022/01/17 02:20:06;;;;;;;10.57;5.97;;;;;;;-1.88;100.00;94320.06;2101972;28;20021;-83
2022/01/17 02:21:17;;;;;;;8.65;5.40;;;;;;;-1.93;100.00;94319.44;2108457;28;20066;-83
2022/01/17 02:22:18;;;;;;;9.15;5.82;;;;;;;-1.97;100.00;94313.28;2106660;28;20103;-83
2022/01/17 02:23:19;;;;;;;10.07;5.68;;;;;;;-1.93;100.00;94311.56;2103793;28;20063;-82
2022/01/17 02:24:22;;;;;;;8.25;5.63;;;;;;;-1.97;100.00;94308.06;2097149;28;20071;-82
2022/01/17 02:25:23;;;;;;;8.52;5.45;;;;;;;-2.00;100.00;94309.41;2104961;28;20073;-82
2022/01/17 02:26:25;;;;;;;9.77;5.35;;;;;;;-2.03;100.00;94316.03;2102921;28;20584;-83
2022/01/17 02:27:26;;;;;;;12.93;5.95;;;;;;;-2.03;100.00;94313.41;2099614;28;20036;-83
2022/01/17 02:28:27;;;;;;;11.05;5.32;;;;;;;-2.06;100.00;94315.91;2112756;28;20086;-83
2022/01/17 02:29:30;;;;;;;8.85;5.13;;;;;;;-2.09;100.00;94312.03;2112582;28;20118;-82
2022/01/17 02:30:32;;;;;;;10.40;5.80;;;;;;;-2.13;100.00;94312.94;2110575;28;20024;-83
2022/01/17 02:31:33;;;;;;;8.55;5.22;;;;;;;-2.16;100.00;94316.16;2107331;27;20571;-82
2022/01/17 02:32:34;;;;;;;8.88;5.47;;;;;;;-2.13;100.00;94315.56;2109969;28;20504;-83
2022/01/17 02:33:36;;;;;;;8.13;5.28;;;;;;;-2.22;100.00;94307.69;2115936;28;20024;-83
2022/01/17 02:34:47;;;;;;;8.75;4.90;;;;;;;-2.22;100.00;94315.56;2104837;28;20401;-83
2022/01/17 02:35:52;;;;;;;7.55;4.88;;;;;;;-2.22;100.00;94312.16;2115655;27;20035;-82
2022/01/17 02:36:58;;;;;;;7.90;5.50;;;;;;;-2.30;100.00;94309.22;2107653;28;20105;-84
2022/01/17 02:38:04;;;;;;;9.27;5.00;;;;;;;-2.26;100.00;94303.38;2101399;28;20468;-83
2022/01/17 02:39:11;;;;;;;9.27;4.97;;;;;;;-2.36;100.00;94307.06;2104933;28;20090;-83
2022/01/17 02:40:20;;;;;;;8.00;5.53;;;;;;;-2.44;100.00;94303.34;2105927;28;20142;-82
2022/01/17 02:41:32;;;;;;;10.40;5.65;;;;;;;-2.40;100.00;94304.25;2107782;27;20035;-82
2022/01/17 02:42:39;;;;;;;10.32;5.40;;;;;;;-2.45;100.00;94301.78;2115437;28;20031;-82
2022/01/17 02:43:47;;;;;;;7.70;4.68;;;;;;;-2.46;100.00;94307.31;2114609;27;20431;-82
2022/01/17 02:45:05;;;;;;;7.75;5.43;;;;;;;-2.51;100.00;94300.38;2117884;27;20106;-83
2022/01/17 02:47:20;;;;;;;11.43;6.03;;;;;;;-2.47;100.00;94300.53;2113379;27;20349;-82
2022/01/17 02:48:32;;;;;;;7.65;4.68;;;;;;;-2.51;100.00;94300.38;2122323;27;20019;-82
2022/01/17 02:49:34;;;;;;;8.02;5.15;;;;;;;-2.46;100.00;94291.59;2118183;28;20137;-81
2022/01/17 02:50:39;;;;;;;8.00;5.30;;;;;;;-2.39;100.00;94297.19;2096720;28;20151;-82
2022/01/17 02:51:40;;;;;;;8.73;5.25;;;;;;;-2.38;100.00;94299.47;2111727;28;20089;-82
2022/01/17 02:52:44;;;;;;;10.75;5.60;;;;;;;-2.30;100.00;94279.63;2116683;27;20498;-82
2022/01/17 02:53:48;;;;;;;9.02;5.63;;;;;;;-2.27;100.00;94297.38;2116524;28;20020;-80
2022/01/17 02:54:49;;;;;;;8.63;5.68;;;;;;;-2.26;100.00;94306.00;2108671;28;20019;-82
2022/01/17 02:55:58;;;;;;;9.25;5.65;;;;;;;-2.25;100.00;94302.28;2101111;28;20599;-83
2022/01/17 02:57:04;;;;;;;8.48;5.22;;;;;;;-2.29;100.00;94300.28;2111758;28;20151;-81
2022/01/17 02:58:08;;;;;;;8.35;5.40;;;;;;;-2.29;100.00;94302.88;2104293;28;20814;-82
2022/01/17 02:59:12;;;;;;;7.47;4.78;;;;;;;-2.23;100.00;94294.91;2109200;27;20027;-83
2022/01/17 03:00:14;;;;;;;7.80;5.38;;;;;;;-2.16;100.00;94295.97;2104540;28;20027;-81
2022/01/17 03:01:20;;;;;;;8.07;5.03;;;;;;;-2.15;100.00;94299.38;2104106;28;20027;-82
2022/01/17 03:02:21;;;;;;;8.60;5.03;;;;;;;-2.07;100.00;94298.63;2106958;27;20119;-81
2022/01/17 03:03:29;;;;;;;9.25;5.13;;;;;;;-2.08;100.00;94299.69;2119836;28;20105;-82
2022/01/17 03:04:31;;;;;;;8.70;5.03;;;;;;;-2.09;100.00;94301.56;2101402;28;20127;-83
2022/01/17 03:05:31;;;;;;;8.30;5.05;;;;;;;-2.05;100.00;94299.09;2110033;28;20100;-81
2022/01/17 03:06:32;;;;;;;9.63;5.63;;;;;;;-2.08;100.00;94302.31;2108212;28;20028;-81
2022/01/17 03:07:33;;;;;;;9.18;5.85;;;;;;;-2.04;100.00;94293.53;2106953;28;20035;-82
2022/01/17 03:08:38;;;;;;;8.27;5.38;;;;;;;-1.98;100.00;94298.63;2100993;28;20110;-82
2022/01/17 03:09:49;;;;;;;10.40;5.38;;;;;;;-1.95;100.00;94298.78;2091768;28;20029;-82
2022/01/17 03:10:51;;;;;;;9.00;5.25;;;;;;;-1.95;100.00;94300.63;2105206;28;20528;-82
2022/01/17 03:11:52;;;;;;;8.68;5.40;;;;;;;-1.97;100.00;94298.34;2112236;28;20034;-82
2022/01/17 03:13:04;;;;;;;8.35;5.40;;;;;;;-1.89;100.00;94302.81;2095733;28;20032;-82
2022/01/17 03:14:05;;;;;;;8.73;5.25;;;;;;;-1.83;100.00;94301.56;2106806;28;20107;-82
2022/01/17 03:15:13;;;;;;;8.98;5.60;;;;;;;-1.83;100.00;94298.97;2108047;28;20020;-81
2022/01/17 03:16:30;;;;;;;9.88;5.65;;;;;;;-1.78;100.00;94301.41;2105942;28;20517;-82
2022/01/17 03:17:33;;;;;;;10.35;5.65;;;;;;;-1.76;100.00;94308.97;2112066;28;20020;-82
2022/01/17 03:18:46;;;;;;;7.22;5.10;;;;;;;-1.76;100.00;94303.72;2107037;28;20116;-82
2022/01/17 03:19:54;;;;;;;7.25;4.78;;;;;;;-1.69;100.00;94305.91;2101422;28;20067;-83
2022/01/17 03:21:01;;;;;;;9.38;5.43;;;;;;;-1.66;100.00;94307.91;2100090;28;20036;-82
2022/01/17 03:22:09;;;;;;;9.63;5.72;;;;;;;-1.59;100.00;94316.06;2097444;28;20449;-81
2022/01/17 03:23:15;;;;;;;11.05;5.88;;;;;;;-1.55;100.00;94314.38;2092411;28;20024;-82
2022/01/17 03:24:21;;;;;;;7.13;5.00;;;;;;;-1.51;100.00;94317.91;2098579;28;20353;-82
2022/01/17 03:25:27;;;;;;;11.27;5.35;;;;;;;-1.53;100.00;94307.75;2091638;28;20028;-82
2022/01/17 03:26:30;;;;;;;10.02;5.20;;;;;;;-1.50;100.00;94300.31;2085550;28;20018;-82
2022/01/17 03:27:34;;;;;;;7.07;4.60;;;;;;;-1.51;100.00;94307.44;2090629;28;20028;-82
2022/01/17 03:28:37;;;;;;;9.25;5.45;;;;;;;-1.49;100.00;94310.53;2096215;28;20017;-82
2022/01/17 03:29:43;;;;;;;11.15;4.57;;;;;;;-1.50;100.00;94306.34;2093695;28;20077;-83
2022/01/17 03:30:50;;;;;;;8.43;4.97;;;;;;;-1.47;100.00;94297.88;2095096;28;20423;-83
2022/01/17 03:31:52;;;;;;;8.20;4.82;;;;;;;-1.44;100.00;94310.38;2098293;28;20054;-82
2022/01/17 03:33:00;;;;;;;8.60;5.07;;;;;;;-1.44;100.00;94312.97;2082265;28;20017;-82
2022/01/17 03:34:06;;;;;;;9.20;5.43;;;;;;;-1.45;100.00;94314.03;2092232;28;20021;-81
2022/01/17 03:35:08;;;;;;;9.48;5.20;;;;;;;-1.43;100.00;94319.75;2106778;28;20032;-81
2022/01/17 03:36:10;;;;;;;9.38;4.40;;;;;;;-1.41;100.00;94322.84;2098455;28;20063;-82
2022/01/17 03:37:21;;;;;;;9.73;5.25;;;;;;;-1.41;100.00;94322.84;2098533;28;20389;-84
2022/01/17 03:38:31;;;;;;;7.25;4.53;;;;;;;-1.27;100.00;94325.31;2099569;28;20052;-82
2022/01/17 03:39:36;;;;;;;;;;;;;;;-1.30;100.00;94324.06;2093208;28;20099;-83
2022/01/17 03:40:38;;;;;;;7.95;4.43;;;;;;;-1.29;100.00;94325.59;2090542;28;19909;-83
2022/01/17 03:41:40;;;;;;;6.38;4.25;;;;;;;-1.25;100.00;94325.75;2090374;28;20198;-82
2022/01/17 03:42:45;;;;;;;9.63;4.88;;;;;;;-1.26;100.00;94329.47;2093974;28;20400;-83
2022/01/17 03:43:46;;;;;;;8.05;4.78;;;;;;;-1.30;100.00;94325.94;2091104;28;20052;-82
2022/01/17 03:44:47;;;;;;;9.02;4.88;;;;;;;-1.29;100.00;94327.47;2093856;28;20027;-82
2022/01/17 03:45:49;;;;;;;6.68;4.43;;;;;;;-1.17;100.00;94329.47;2094774;28;20029;-83
2022/01/17 03:46:50;;;;;;;8.13;4.97;;;;;;;-0.97;100.00;94326.16;2093390;28;20520;-83
2022/01/17 03:47:53;;;;;;;6.28;4.50;;;;;;;-1.00;100.00;94320.78;2087014;28;20055;-82
2022/01/17 03:48:54;;;;;;;8.25;4.47;;;;;;;-1.09;100.00;94320.81;2098594;28;20118;-83
2022/01/17 03:49:55;;;;;;;7.72;4.90;;;;;;;-1.11;100.00;94323.72;2089973;28;20029;-83
2022/01/17 03:50:58;;;;;;;7.80;4.53;;;;;;;-1.08;100.00;94322.34;2095731;28;20060;-82
2022/01/17 03:51:59;;;;;;;6.40;4.35;;;;;;;-1.15;100.00;94319.41;2115033;28;20027;-82
2022/01/17 03:53:00;;;;;;;8.75;4.93;;;;;;;-1.16;100.00;94323.88;2101842;28;20380;-82
2022/01/17 03:54:05;;;;;;;6.82;4.05;;;;;;;-1.11;100.00;94323.72;2090969;28;20525;-81
2022/01/17 03:55:11;;;;;;;7.35;4.53;;;;;;;-1.10;100.00;94327.13;2084444;28;20402;-82
2022/01/17 03:56:13;;;;;;;7.68;4.75;;;;;;;-1.10;100.00;94317.41;2085814;28;20543;-83
2022/01/17 03:57:15;;;;;;;7.88;4.13;;;;;;;-1.08;100.00;94319.72;2084458;28;20040;-82
2022/01/17 03:58:22;;;;;;;6.00;4.22;;;;;;;-1.07;100.00;94322.03;2088765;28;20021;-82
2022/01/17 03:59:25;;;;;;;6.20;4.15;;;;;;;-1.10;100.00;94322.66;2096739;28;20421;-81
2022/01/17 04:00:29;;;;;;;6.13;4.13;;;;;;;-1.12;100.00;94319.56;2091869;28;20029;-83
2022/01/17 04:01:30;;;;;;;6.22;4.25;;;;;;;-1.13;100.00;94320.66;2104760;28;20077;-82
2022/01/17 04:02:31;;;;;;;7.55;3.85;;;;;;;-1.16;100.00;94308.16;2091982;28;20444;-82
2022/01/17 04:03:32;;;;;;;7.93;4.93;;;;;;;-1.16;100.00;94312.63;2102168;28;20377;-82
2022/01/17 04:04:33;;;;;;;8.00;4.32;;;;;;;-1.22;100.00;94306.78;2102245;28;20408;-82
2022/01/17 04:05:37;;;;;;;5.88;3.75;;;;;;;-1.18;100.00;94305.09;2092365;28;20156;-83
2022/01/17 04:06:42;;;;;;;5.93;4.18;;;;;;;-1.27;100.00;94301.72;2094775;28;20016;-82
2022/01/17 04:07:50;;;;;;;6.25;3.58;;;;;;;-1.28;100.00;94300.16;2094664;28;20036;-82
2022/01/17 04:08:57;;;;;;;6.90;4.38;;;;;;;-1.36;100.00;94299.09;2098022;28;20047;-82
2022/01/17 04:10:01;;;;;;;8.32;4.78;;;;;;;-1.37;100.00;94307.25;2102590;28;20078;-82
2022/01/17 04:11:06;;;;;;;6.97;4.70;;;;;;;-1.40;100.00;94303.41;2096834;28;20035;-83
2022/01/17 04:12:08;;;;;;;7.93;4.45;;;;;;;-1.45;100.00;94303.56;2091526;28;20071;-82
2022/01/17 04:13:15;;;;;;;7.95;5.03;;;;;;;-1.39;100.00;94304.19;2105580;28;20039;-82
2022/01/17 04:14:17;;;;;;;6.43;4.40;;;;;;;-1.35;100.00;94307.72;2099122;28;20024;-82
2022/01/17 04:15:18;;;;;;;8.60;5.55;;;;;;;-1.35;100.00;94298.00;2098153;28;20033;-82
2022/01/17 04:16:19;;;;;;;8.68;5.47;;;;;;;-1.41;100.00;94307.09;2094528;28;20021;-82
2022/01/17 04:17:27;;;;;;;7.93;5.63;;;;;;;-1.46;100.00;94298.63;2105676;28;20078;-82
2022/01/17 04:18:38;;;;;;;7.18;5.20;;;;;;;-1.49;100.00;94301.88;2085559;28;20025;-82
2022/01/17 04:19:41;;;;;;;8.63;5.45;;;;;;;-1.42;100.00;94310.03;2095760;28;20482;-82
2022/01/17 04:20:43;;;;;;;8.85;5.32;;;;;;;-1.42;100.00;94310.81;2094460;28;20035;-82
2022/01/17 04:21:46;;;;;;;7.90;5.75;;;;;;;-1.41;100.00;94309.72;2098100;28;20029;-83
2022/01/17 04:22:52;;;;;;;9.65;6.35;;;;;;;-1.40;100.00;94315.75;2094086;28;20036;-81
2022/01/17 04:23:55;;;;;;;13.27;6.38;;;;;;;-1.43;100.00;94319.00;2095864;28;20485;-81
2022/01/17 04:24:56;;;;;;;9.15;6.80;;;;;;;-1.49;100.00;94309.72;2092497;28;20051;-82
2022/01/17 04:25:57;;;;;;;10.65;6.63;;;;;;;-1.52;100.00;94313.75;2081580;28;20390;-83
2022/01/17 04:26:58;;;;;;;10.18;6.50;;;;;;;-1.56;100.00;94307.59;2095714;28;20048;-82
2022/01/17 04:28:01;;;;;;;8.75;6.20;;;;;;;-1.62;100.00;94316.69;2089721;28;20393;-82
2022/01/17 04:29:02;;;;;;;12.30;6.60;;;;;;;-1.67;100.00;94311.59;2098492;28;20032;-83
2022/01/17 04:30:06;;;;;;;10.85;6.40;;;;;;;-1.63;100.00;94317.75;2104612;28;20480;-82
2022/01/17 04:31:07;;;;;;;9.13;6.00;;;;;;;-1.62;100.00;94322.72;2089786;28;20041;-83
2022/01/17 04:32:08;;;;;;;10.52;6.18;;;;;;;-1.60;100.00;94322.38;2089674;28;20501;-84
2022/01/17 04:33:10;;;;;;;9.23;6.03;;;;;;;-1.60;100.00;94322.38;2104612;28;20477;-82
2022/01/17 04:34:11;;;;;;;8.35;6.30;;;;;;;-1.55;100.00;94323.00;2098331;28;20024;-82
2022/01/17 04:35:20;;;;;;;10.32;6.10;;;;;;;-1.54;100.00;94321.16;2089856;28;20086;-82
2022/01/17 04:36:21;;;;;;;10.15;6.82;;;;;;;-1.60;100.00;94333.66;2083624;28;20450;-82
2022/01/17 04:37:22;;;;;;;8.57;6.18;;;;;;;-1.64;100.00;94329.31;2089584;28;20021;-83
2022/01/17 04:38:23;;;;;;;10.13;5.97;;;;;;;-1.68;100.00;94331.78;2098853;28;20028;-82
2022/01/17 04:39:25;;;;;;;8.32;5.70;;;;;;;-1.70;100.00;94330.56;2097853;28;20060;-82
2022/01/17 04:40:33;;;;;;;9.23;5.38;;;;;;;-1.56;100.00;94331.94;2096508;28;20075;-82
2022/01/17 04:41:39;;;;;;;9.35;4.80;;;;;;;-1.44;100.00;94335.81;2090471;28;20033;-81
2022/01/17 04:42:48;;;;;;;6.85;5.35;;;;;;;-1.47;100.00;94336.41;2093842;28;20020;-83
2022/01/17 04:45:07;;;;;;;8.55;5.13;;;;;;;-1.48;100.00;94340.13;2094330;28;20043;-82
2022/01/17 04:46:11;;;;;;;7.18;4.72;;;;;;;-1.59;100.00;94345.66;2101222;28;20036;-81
2022/01/17 04:47:12;;;;;;;7.07;4.25;;;;;;;-1.56;100.00;94339.81;2097756;28;20517;-81
2022/01/17 04:48:13;;;;;;;7.53;3.95;;;;;;;-1.46;100.00;94343.97;2081514;28;20021;-82
2022/01/17 04:49:15;;;;;;;5.20;4.10;;;;;;;-1.49;100.00;94343.81;2089442;28;20119;-82
2022/01/17 04:50:19;;;;;;;7.68;4.43;;;;;;;-1.43;100.00;94358.31;2097723;28;20033;-81
2022/01/17 04:51:20;;;;;;;7.60;4.68;;;;;;;-1.51;100.00;94359.88;2097387;28;20024;-81
2022/01/17 04:52:21;;;;;;;8.02;5.20;;;;;;;-1.57;100.00;94368.97;2081241;28;20021;-81
2022/01/17 04:53:23;;;;;;;7.68;5.72;;;;;;;-1.59;100.00;94358.00;2090392;28;20036;-81
2022/01/17 04:55:28;;;;;;;7.57;5.88;;;;;;;-1.58;100.00;94365.59;2096763;28;20111;-81
2022/01/17 04:56:29;;;;;;;6.85;5.35;;;;;;;-1.57;100.00;94363.72;2099557;28;20040;-83
2022/01/17 04:57:30;;;;;;;9.52;5.70;;;;;;;-1.59;100.00;94369.25;2091424;28;20025;-81
2022/01/17 04:58:31;;;;;;;7.75;5.45;;;;;;;-1.50;100.00;94369.25;2097776;28;20020;-83
2022/01/17 04:59:32;;;;;;;9.73;5.88;;;;;;;-1.52;100.00;94366.19;2103616;28;20031;-81
2022/01/17 05:00:33;;;;;;;6.28;4.75;;;;;;;-1.54;100.00;94358.66;2100202;28;20102;-81
2022/01/17 05:01:34;;;;;;;7.65;5.53;;;;;;;-1.50;100.00;94358.00;2094940;28;20031;-82
2022/01/17 05:02:35;;;;;;;8.07;5.72;;;;;;;-1.57;100.00;94359.25;2092065;28;20071;-82
2022/01/17 05:03:42;;;;;;;10.88;5.25;;;;;;;-1.53;100.00;94356.78;2094717;28;20088;-81
2022/01/17 05:04:47;;;;;;;6.95;4.68;;;;;;;-1.49;100.00;94362.16;2102090;28;20042;-81
2022/01/17 05:05:51;;;;;;;7.50;4.80;;;;;;;-1.46;100.00;94366.81;2099008;28;20024;-81
2022/01/17 05:06:52;;;;;;;5.80;4.10;;;;;;;-1.53;100.00;94367.28;2101672;28;20032;-82
2022/01/17 05:07:54;;;;;;;8.88;4.97;;;;;;;-1.55;100.00;94366.78;2092382;28;20033;-82
2022/01/17 05:08:59;;;;;;;8.13;4.80;;;;;;;-1.61;100.00;94362.78;2086912;28;20024;-83
2022/01/17 05:10:08;;;;;;;9.82;5.47;;;;;;;-1.56;100.00;94360.78;2089463;28;20045;-81
2022/01/17 05:11:14;;;;;;;8.73;5.72;;;;;;;-1.57;100.00;94353.25;2105152;28;20028;-82
2022/01/17 05:12:16;;;;;;;9.25;5.63;;;;;;;-1.50;100.00;94360.63;2099106;28;20108;-82
2022/01/17 05:13:27;;;;;;;8.23;5.35;;;;;;;-1.61;100.00;94354.94;2097743;28;20069;-81